Keysville, Georgia
Current Conditions -  °F | °C
As of 3:53 PM on Friday 31 Oct 2014 (Local Time) from KAGS Reporting Station
Few Clouds Few Clouds  
Wind Chill: 22°   Ceiling: Unl
Heat Index: 22°   Visibility: 10mi
Dew Point:   Wind: 7mph
Humidity: 36%   Direction: 340°NNW
Pressure: 29.79"   Gusts: NA
Location:  33.23°N, 82.23°W
Report Text: KAGS 311953Z 34006KT 10SM FEW100 22/06 A2979 RMK AO2 SLP085 T02170061
Loading
Personal Weather Stations






























Interactive Weather Map
Tropical Storm Tracking
New forecast layout! Learn more

10-Day Weather Forecast

Advertisements
Track Severe Weather on mobile